createdAt,value
2018-12-03T00:01:06.815Z,141.43
2018-12-03T00:03:36.601Z,144.27
2018-12-03T00:06:05.761Z,147.03
2018-12-03T00:08:35.067Z,144.70
2018-12-03T00:11:04.312Z,135.33
2018-12-03T00:13:33.461Z,143.37
2018-12-03T00:16:02.625Z,160.13
2018-12-03T00:18:31.948Z,146.10
2018-12-03T00:21:01.233Z,154.03
2018-12-03T00:23:30.732Z,149.70
2018-12-03T00:26:00.019Z,149.33
2018-12-03T00:28:29.280Z,141.53
2018-12-03T00:30:58.507Z,149.97
2018-12-03T00:33:27.715Z,143.00
2018-12-03T00:35:56.797Z,153.97
2018-12-03T00:38:25.858Z,152.97
2018-12-03T00:40:54.974Z,149.27
2018-12-03T00:43:24.240Z,151.30
2018-12-03T00:45:53.296Z,141.30
2018-12-03T00:48:22.541Z,152.50
2018-12-03T00:50:51.791Z,148.40
2018-12-03T00:53:20.871Z,145.03
2018-12-03T00:55:50.092Z,147.73
2018-12-03T00:58:19.905Z,140.10
2018-12-03T01:00:49.002Z,149.63
2018-12-03T01:03:18.196Z,150.37
2018-12-03T01:05:47.316Z,146.73
2018-12-03T01:08:16.508Z,144.80
2018-12-03T01:10:45.634Z,136.00
2018-12-03T01:13:14.767Z,148.13
2018-12-03T01:15:43.891Z,157.50
2018-12-03T01:18:12.995Z,144.07
2018-12-03T01:20:42.162Z,148.47
2018-12-03T01:23:11.458Z,149.53
2018-12-03T01:25:40.556Z,153.27
2018-12-03T01:28:09.599Z,150.17
2018-12-03T01:30:38.806Z,157.37
2018-12-03T01:33:07.959Z,148.57
2018-12-03T01:35:37.086Z,134.10
2018-12-03T01:38:07.083Z,148.87
2018-12-03T01:40:36.222Z,164.90
2018-12-03T01:43:05.711Z,143.13
2018-12-03T01:45:34.918Z,142.50
2018-12-03T01:48:04.140Z,147.23
2018-12-03T01:50:33.245Z,145.70
2018-12-03T01:53:02.504Z,149.47
2018-12-03T01:55:31.620Z,141.07
2018-12-03T01:58:00.762Z,163.30
2018-12-03T02:00:29.960Z,160.07
2018-12-03T02:02:58.970Z,148.03
2018-12-03T02:05:28.115Z,141.57
2018-12-03T02:07:57.315Z,139.10
2018-12-03T02:10:26.477Z,143.87
2018-12-03T02:12:55.583Z,149.63
2018-12-03T02:15:24.740Z,151.77
2018-12-03T02:17:53.863Z,135.17
2018-12-03T02:20:22.924Z,139.03
2018-12-03T02:22:52.041Z,141.40
2018-12-03T02:25:21.273Z,146.30
2018-12-03T02:27:50.977Z,146.47
2018-12-03T02:30:20.089Z,128.93
2018-12-03T02:32:49.228Z,151.83
2018-12-03T02:35:18.401Z,136.73
2018-12-03T02:37:47.629Z,140.00
2018-12-03T02:40:18.044Z,139.97
2018-12-03T02:42:47.152Z,144.53
2018-12-03T02:45:16.325Z,136.60
2018-12-03T02:47:46.260Z,135.30
2018-12-03T02:50:15.962Z,122.03
2018-12-03T02:52:45.242Z,138.03
2018-12-03T02:55:14.683Z,123.97
2018-12-03T02:57:43.824Z,134.27
2018-12-03T03:00:16.357Z,131.33
2018-12-03T03:02:45.651Z,113.63
2018-12-03T03:05:15.811Z,126.50
2018-12-03T03:07:45.809Z,124.70
2018-12-03T03:10:16.604Z,134.30
2018-12-03T03:12:45.828Z,125.80
2018-12-03T03:15:16.042Z,113.30
2018-12-03T03:17:45.349Z,119.00
2018-12-03T03:20:14.555Z,121.20
2018-12-03T03:22:43.912Z,109.20
2018-12-03T03:25:13.089Z,112.03
2018-12-03T03:27:42.328Z,115.87
2018-12-03T03:30:14.437Z,107.40
2018-12-03T03:32:43.894Z,109.80
2018-12-03T03:35:14.124Z,107.63
2018-12-03T03:37:43.243Z,95.57
2018-12-03T03:40:14.811Z,101.13
2018-12-03T03:42:47.355Z,111.70
2018-12-03T03:45:18.870Z,110.30
2018-12-03T03:47:48.088Z,109.50
2018-12-03T03:50:17.441Z,114.37
2018-12-03T03:52:46.597Z,116.20
2018-12-03T03:55:15.936Z,109.97
2018-12-03T03:57:45.102Z,120.10
2018-12-03T04:00:16.234Z,109.97
2018-12-03T04:02:45.428Z,116.30
2018-12-03T04:05:15.292Z,117.43
2018-12-03T04:07:45.471Z,113.03
2018-12-03T04:10:15.479Z,123.07
2018-12-03T04:12:45.455Z,127.37
2018-12-03T04:15:15.346Z,129.70
2018-12-03T04:17:44.623Z,126.33
2018-12-03T04:20:15.723Z,132.10
2018-12-03T04:22:49.894Z,129.37
2018-12-03T04:25:19.013Z,127.17
2018-12-03T04:27:48.734Z,143.67
2018-12-03T04:30:19.956Z,131.10
2018-12-03T04:32:48.968Z,131.37
2018-12-03T04:35:18.444Z,141.73
2018-12-03T04:37:47.768Z,136.83
2018-12-03T04:40:17.565Z,130.30
2018-12-03T04:42:46.664Z,136.30
2018-12-03T04:45:16.963Z,139.10
2018-12-03T04:47:46.580Z,124.97
2018-12-03T04:50:17.820Z,133.97
2018-12-03T04:52:46.850Z,129.10
2018-12-03T04:55:17.383Z,134.30
2018-12-03T04:57:46.466Z,139.90
2018-12-03T05:00:18.628Z,123.37
2018-12-03T05:02:49.176Z,124.27
2018-12-03T05:05:18.278Z,129.63
2018-12-03T05:07:47.373Z,127.53
2018-12-03T05:10:18.263Z,126.57
2018-12-03T05:12:48.475Z,133.03
2018-12-03T05:15:17.632Z,138.20
2018-12-03T05:17:46.888Z,125.03
2018-12-03T05:20:30.599Z,131.43
2018-12-03T05:22:59.752Z,124.07
2018-12-03T05:25:28.833Z,123.03
2018-12-03T05:27:57.881Z,136.90
2018-12-03T05:30:26.944Z,134.23
2018-12-03T05:32:56.068Z,130.67
2018-12-03T05:35:27.494Z,133.30
2018-12-03T05:37:56.671Z,127.47
2018-12-03T05:40:28.418Z,134.10
2018-12-03T05:42:57.564Z,124.47
2018-12-03T05:45:26.754Z,126.70
2018-12-03T05:47:55.883Z,128.53
2018-12-03T05:50:25.289Z,146.60
2018-12-03T05:52:54.416Z,162.07
2018-12-03T05:55:23.572Z,126.40
2018-12-03T05:57:52.752Z,121.03
2018-12-03T06:00:23.680Z,123.53
2018-12-03T06:02:52.726Z,125.90
2018-12-03T06:05:21.836Z,135.00
2018-12-03T06:07:50.943Z,127.10
2018-12-03T06:10:21.242Z,122.67
2018-12-03T06:12:50.468Z,118.80
2018-12-03T06:15:20.483Z,120.87
2018-12-03T06:17:50.907Z,114.27
2018-12-03T06:20:20.925Z,117.10
2018-12-03T06:22:51.139Z,112.77
2018-12-03T06:25:22.681Z,111.53
2018-12-03T06:27:52.177Z,109.73
2018-12-03T06:30:22.630Z,117.30
2018-12-03T06:32:51.683Z,170.93
2018-12-03T06:35:21.213Z,109.17
2018-12-03T06:37:50.728Z,108.20
2018-12-03T06:40:21.775Z,98.73
2018-12-03T06:42:50.872Z,112.17
2018-12-03T06:45:20.909Z,94.73
2018-12-03T06:47:53.869Z,99.23
2018-12-03T06:50:23.504Z,99.20
2018-12-03T06:52:52.710Z,89.43
2018-12-03T06:55:21.923Z,93.83
2018-12-03T06:57:51.139Z,91.27
2018-12-03T07:00:21.606Z,92.27
2018-12-03T07:02:50.762Z,95.63
2018-12-03T07:05:20.001Z,99.00
2018-12-03T07:07:50.581Z,95.20
2018-12-03T07:10:20.591Z,95.77
2018-12-03T07:12:51.522Z,90.97
2018-12-03T07:15:21.720Z,91.17
2018-12-03T07:17:52.618Z,96.60
2018-12-03T07:20:23.167Z,98.50
2018-12-03T07:22:52.304Z,98.17
2018-12-03T07:25:21.435Z,96.60
2018-12-03T07:27:50.805Z,93.07
2018-12-03T07:30:22.676Z,96.00
2018-12-03T07:32:52.533Z,98.77
2018-12-03T07:35:22.525Z,101.67
2018-12-03T07:37:52.941Z,93.07
2018-12-03T07:40:21.996Z,90.97
2018-12-03T07:42:51.267Z,81.13
2018-12-03T07:45:22.463Z,93.20
2018-12-03T07:47:51.732Z,94.53
2018-12-03T07:50:23.107Z,90.40
2018-12-03T07:52:52.216Z,92.53
2018-12-03T07:55:22.595Z,101.97
2018-12-03T07:58:01.976Z,89.87
2018-12-03T08:00:36.452Z,95.30
2018-12-03T08:03:06.303Z,89.40
2018-12-03T08:05:35.507Z,86.47
2018-12-03T08:08:04.626Z,101.67
2018-12-03T08:10:33.679Z,96.30
2018-12-03T08:13:03.504Z,94.60
2018-12-03T08:15:32.778Z,93.17
2018-12-03T08:18:03.242Z,96.27
2018-12-03T08:20:38.906Z,97.50
2018-12-03T08:23:10.792Z,99.03
2018-12-03T08:25:40.225Z,97.23
2018-12-03T08:28:09.528Z,86.93
2018-12-03T08:30:38.730Z,108.20
2018-12-03T08:33:08.813Z,232.07
2018-12-03T08:35:37.916Z,153.70
2018-12-03T08:38:07.084Z,88.43
2018-12-03T08:40:36.327Z,96.50
2018-12-03T08:43:05.637Z,94.80
2018-12-03T08:45:34.856Z,93.30
2018-12-03T08:48:04.074Z,94.37
2018-12-03T08:50:33.184Z,90.53
2018-12-03T08:53:02.284Z,89.27
2018-12-03T08:55:31.276Z,87.50
2018-12-03T08:58:00.388Z,91.93
2018-12-03T09:00:30.490Z,90.97
2018-12-03T09:03:05.254Z,88.27
2018-12-03T09:05:36.722Z,86.57
2018-12-03T09:08:06.944Z,88.73
2018-12-03T09:10:36.873Z,91.60
2018-12-03T09:13:22.102Z,98.70
2018-12-03T09:15:57.173Z,99.67
2018-12-03T09:18:31.469Z,93.20
2018-12-03T09:21:00.825Z,98.03
2018-12-03T09:23:30.040Z,100.73
2018-12-03T09:25:59.258Z,105.53
2018-12-03T09:28:28.504Z,96.90
2018-12-03T09:30:57.958Z,99.60
2018-12-03T09:33:27.156Z,101.63
2018-12-03T09:35:56.345Z,96.60
2018-12-03T09:38:25.468Z,100.47
2018-12-03T09:40:59.434Z,109.00
2018-12-03T09:43:29.766Z,105.70
2018-12-03T09:45:58.969Z,95.87
2018-12-03T09:48:28.152Z,100.20
2018-12-03T09:50:57.293Z,97.33
2018-12-03T09:53:26.447Z,106.27
2018-12-03T09:55:55.619Z,93.80
2018-12-03T09:58:25.096Z,93.70
2018-12-03T10:00:54.105Z,106.30
2018-12-03T10:03:27.026Z,96.03
2018-12-03T10:05:58.778Z,101.87
2018-12-03T10:08:29.512Z,98.50
2018-12-03T10:11:01.041Z,98.47
2018-12-03T10:13:31.169Z,98.83
2018-12-03T10:16:00.416Z,94.53
2018-12-03T10:18:29.634Z,105.43
2018-12-03T10:21:00.156Z,98.57
2018-12-03T10:23:29.398Z,100.00
2018-12-03T10:25:59.918Z,91.30
2018-12-03T10:28:29.630Z,89.63
2018-12-03T10:30:59.267Z,98.07
2018-12-03T10:33:33.103Z,95.20
2018-12-03T10:36:04.506Z,96.67
2018-12-03T10:38:35.147Z,90.33
2018-12-03T10:41:11.180Z,90.47
2018-12-03T10:43:40.538Z,93.50
2018-12-03T10:46:10.705Z,102.70
2018-12-03T10:48:39.873Z,98.60
2018-12-03T10:51:17.439Z,96.17
2018-12-03T10:53:46.483Z,95.63
2018-12-03T10:56:15.743Z,94.43
2018-12-03T10:58:46.248Z,91.80
2018-12-03T11:01:20.436Z,91.90
2018-12-03T11:03:54.742Z,95.33
2018-12-03T11:06:24.541Z,95.37
2018-12-03T11:08:54.002Z,92.37
2018-12-03T11:11:23.522Z,99.67
2018-12-03T11:13:52.628Z,103.93
2018-12-03T11:16:29.331Z,94.33
2018-12-03T11:18:58.805Z,97.63
2018-12-03T11:21:28.072Z,97.77
2018-12-03T11:23:57.472Z,102.67
2018-12-03T11:26:32.109Z,98.00
2018-12-03T11:29:02.090Z,100.90
2018-12-03T11:31:33.665Z,110.13
2018-12-03T11:34:02.892Z,105.57
2018-12-03T11:36:37.970Z,99.37
2018-12-03T11:39:18.436Z,103.17
2018-12-03T11:41:48.170Z,104.73
2018-12-03T11:44:17.336Z,103.90
2018-12-03T11:46:46.451Z,104.53
2018-12-03T11:49:15.620Z,101.20
2018-12-03T11:51:44.670Z,98.40
2018-12-03T11:54:13.799Z,101.03
2018-12-03T11:57:31.284Z,107.83
2018-12-03T12:00:03.665Z,103.00
2018-12-03T12:02:36.540Z,104.43
2018-12-03T12:05:09.684Z,97.60
2018-12-03T12:07:42.492Z,105.77
2018-12-03T12:10:14.991Z,108.30
2018-12-03T12:12:47.099Z,112.90
2018-12-03T12:15:19.144Z,99.60
2018-12-03T12:17:51.821Z,106.17
2018-12-03T12:20:24.524Z,113.37
2018-12-03T12:22:56.860Z,106.60
2018-12-03T12:25:27.018Z,102.07
2018-12-03T12:27:59.720Z,105.13
2018-12-03T12:30:36.407Z,101.93
2018-12-03T12:33:09.311Z,98.60
2018-12-03T12:35:42.204Z,99.43
2018-12-03T12:38:14.500Z,104.43
2018-12-03T12:40:47.052Z,106.90
2018-12-03T12:43:19.803Z,98.27
2018-12-03T12:46:26.628Z,116.50
2018-12-03T12:49:02.974Z,101.43
2018-12-03T12:51:35.194Z,100.40
2018-12-03T12:54:07.304Z,93.47
2018-12-03T12:56:39.388Z,103.90
2018-12-03T12:59:11.435Z,108.10
2018-12-03T13:01:47.635Z,103.13
2018-12-03T13:04:20.636Z,103.80
2018-12-03T13:06:56.876Z,105.57
2018-12-03T13:09:28.996Z,104.07
2018-12-03T13:12:01.107Z,97.73
2018-12-03T13:14:33.221Z,100.30
2018-12-03T13:17:05.694Z,100.10
2018-12-03T13:19:38.543Z,92.97
2018-12-03T13:22:10.978Z,95.57
2018-12-03T13:24:43.868Z,92.57
2018-12-03T13:27:15.867Z,95.37
2018-12-03T13:29:48.049Z,95.17
2018-12-03T13:32:24.981Z,95.87
2018-12-03T13:34:57.316Z,88.00
2018-12-03T13:37:30.319Z,94.10
2018-12-03T13:40:02.555Z,88.40
2018-12-03T13:42:38.624Z,92.57
2018-12-03T13:45:13.232Z,86.27
2018-12-03T13:47:46.141Z,91.50
2018-12-03T13:50:19.052Z,87.27
2018-12-03T13:52:51.236Z,81.97
2018-12-03T13:55:23.712Z,88.27
2018-12-03T13:57:56.719Z,94.70
2018-12-03T14:00:29.647Z,92.83
2018-12-03T14:03:35.341Z,96.63
2018-12-03T14:06:46.984Z,94.63
2018-12-03T14:11:31.065Z,97.70
2018-12-03T14:14:23.378Z,94.43
2018-12-03T14:17:37.485Z,94.30
2018-12-03T14:20:10.411Z,96.33
2018-12-03T14:22:51.247Z,99.00
2018-12-03T14:25:24.220Z,95.50
2018-12-03T14:27:56.473Z,95.37
2018-12-03T14:30:28.504Z,89.90
2018-12-03T14:33:00.933Z,96.83
2018-12-03T14:35:33.824Z,92.27
2018-12-03T14:38:06.139Z,99.87
2018-12-03T14:40:39.095Z,96.93
2018-12-03T14:43:15.293Z,102.57
2018-12-03T14:45:47.519Z,97.30
2018-12-03T14:48:19.865Z,98.60
2018-12-03T14:50:56.152Z,99.20
2018-12-03T14:53:26.336Z,94.40
2018-12-03T14:55:59.336Z,97.03
2018-12-03T14:58:32.145Z,101.43
2018-12-03T15:01:04.884Z,99.37
2018-12-03T15:03:41.715Z,101.93
2018-12-03T15:06:13.851Z,99.40
2018-12-03T15:08:46.099Z,104.47
2018-12-03T15:11:18.129Z,103.67
2018-12-03T15:13:50.210Z,105.17
2018-12-03T15:16:27.156Z,95.10
2018-12-03T15:18:59.395Z,98.70
2018-12-03T15:21:32.347Z,111.37
2018-12-03T15:24:04.624Z,107.70
2018-12-03T15:26:37.524Z,101.70
2018-12-03T15:29:14.479Z,107.40
2018-12-03T15:31:47.010Z,112.50
2018-12-03T15:34:19.211Z,103.97
2018-12-03T15:36:55.283Z,107.57
2018-12-03T15:39:27.516Z,114.23
2018-12-03T15:42:00.447Z,107.87
2018-12-03T15:44:36.685Z,110.87
2018-12-03T15:47:13.664Z,114.87
2018-12-03T15:49:49.755Z,117.00
2018-12-03T15:52:22.168Z,122.03
2018-12-03T15:54:54.571Z,117.23
2018-12-03T15:57:27.732Z,120.30
2018-12-03T15:59:59.847Z,121.83
2018-12-03T16:02:32.097Z,127.87
2018-12-03T16:05:06.252Z,119.87
2018-12-03T16:07:38.968Z,123.00
2018-12-03T16:10:15.613Z,120.30
2018-12-03T16:12:49.365Z,119.07
2018-12-03T16:15:22.321Z,122.00
2018-12-03T16:17:54.388Z,124.77
2018-12-03T16:20:27.464Z,133.97
2018-12-03T16:23:00.506Z,121.30
2018-12-03T16:25:37.508Z,129.10
2018-12-03T16:28:13.873Z,124.47
2018-12-03T16:30:46.768Z,128.97
2018-12-03T16:33:19.765Z,166.43
2018-12-03T16:35:52.188Z,132.93
2018-12-03T16:38:25.109Z,122.53
2018-12-03T16:40:58.224Z,126.67
2018-12-03T16:43:35.098Z,119.07
2018-12-03T16:46:07.864Z,116.47
2018-12-03T16:48:40.068Z,125.30
2018-12-03T16:51:12.574Z,127.43
2018-12-03T16:53:48.716Z,123.00
2018-12-03T16:56:21.780Z,123.90
2018-12-03T16:58:54.932Z,122.70
2018-12-03T17:01:27.818Z,125.67
2018-12-03T17:04:00.065Z,131.97
2018-12-03T17:06:36.193Z,123.60
2018-12-03T17:09:10.388Z,120.60
2018-12-03T17:11:43.819Z,117.50
2018-12-03T17:14:16.198Z,124.03
2018-12-03T17:16:52.453Z,124.90
2018-12-03T17:19:24.699Z,130.90
2018-12-03T17:22:10.984Z,124.47
2018-12-03T17:24:44.788Z,129.40
2018-12-03T17:27:17.756Z,135.93
2018-12-03T17:29:50.445Z,127.60
2018-12-03T17:32:22.821Z,132.20
2018-12-03T17:34:55.844Z,122.83
2018-12-03T17:37:28.162Z,124.63
2018-12-03T17:40:01.085Z,125.33
2018-12-03T17:42:34.032Z,124.00
2018-12-03T17:45:09.688Z,125.83
2018-12-03T17:47:43.025Z,128.70
2018-12-03T17:50:15.932Z,131.83
2018-12-03T17:52:48.336Z,133.13
2018-12-03T17:55:21.461Z,137.90
2018-12-03T17:57:54.412Z,131.40
2018-12-03T18:00:26.592Z,136.67
2018-12-03T18:02:59.583Z,138.13
2018-12-03T18:05:32.424Z,148.77
2018-12-03T18:08:04.871Z,146.47
2018-12-03T18:10:37.716Z,153.30
2018-12-03T18:13:11.061Z,153.43
2018-12-03T18:15:44.018Z,144.13
2018-12-03T18:18:15.114Z,162.93
2018-12-03T18:20:51.240Z,150.80
2018-12-03T18:23:25.331Z,149.57
2018-12-03T18:25:57.684Z,373.13
2018-12-03T18:28:30.732Z,152.73
2018-12-03T18:31:03.011Z,157.03
2018-12-03T18:33:35.273Z,152.07
2018-12-03T18:36:07.527Z,141.57
2018-12-03T18:38:40.550Z,149.07
2018-12-03T18:41:17.171Z,161.03
2018-12-03T18:43:50.122Z,154.77
2018-12-03T18:46:22.430Z,151.53
2018-12-03T18:49:14.372Z,153.30
2018-12-03T18:51:46.740Z,140.83
2018-12-03T18:54:18.866Z,159.43
2018-12-03T18:56:51.341Z,168.73
2018-12-03T18:59:23.401Z,164.27
2018-12-03T19:01:56.378Z,154.93
2018-12-03T19:04:32.594Z,148.00
2018-12-03T19:07:05.564Z,150.50
2018-12-03T19:09:37.704Z,156.77
2018-12-03T19:12:10.058Z,159.77
2018-12-03T19:14:47.801Z,141.97
2018-12-03T19:17:20.352Z,175.40
2018-12-03T19:19:53.303Z,170.43
2018-12-03T19:22:25.953Z,243.93
2018-12-03T19:24:58.048Z,155.23
2018-12-03T19:27:30.124Z,159.40
2018-12-03T19:30:02.350Z,155.70
2018-12-03T19:32:38.761Z,147.13
2018-12-03T19:35:11.793Z,150.83
2018-12-03T19:37:44.546Z,149.27
2018-12-03T19:40:16.792Z,144.13
2018-12-03T19:42:49.760Z,154.57
2018-12-03T19:45:21.953Z,153.67
2018-12-03T19:47:54.020Z,144.97
2018-12-03T19:50:26.406Z,149.03
2018-12-03T19:53:02.888Z,137.93
2018-12-03T19:55:37.073Z,139.00
2018-12-03T19:58:15.862Z,143.43
2018-12-03T20:00:49.536Z,154.07
2018-12-03T20:03:22.056Z,153.37
2018-12-03T20:05:54.356Z,139.13
2018-12-03T20:08:31.584Z,148.33
2018-12-03T20:11:04.790Z,143.27
2018-12-03T20:13:37.034Z,144.30
2018-12-03T20:16:11.430Z,142.60
2018-12-03T20:18:44.451Z,150.60
2018-12-03T20:21:19.984Z,147.90
2018-12-03T20:23:57.272Z,149.50
2018-12-03T20:26:34.912Z,148.67
2018-12-03T20:29:24.533Z,151.47
2018-12-03T20:32:06.319Z,147.33
2018-12-03T20:34:46.197Z,151.70
2018-12-03T20:37:59.529Z,148.23
2018-12-03T20:41:40.211Z,143.97
2018-12-03T20:46:27.096Z,145.13
2018-12-03T20:49:07.510Z,157.87
2018-12-03T20:51:41.827Z,157.07
2018-12-03T20:54:15.045Z,144.73
2018-12-03T20:56:47.783Z,151.13
2018-12-03T20:59:20.587Z,153.63
2018-12-03T21:01:51.623Z,146.40
2018-12-03T21:04:24.600Z,181.50
2018-12-03T21:06:56.628Z,154.43
2018-12-03T21:09:29.447Z,154.70
2018-12-03T21:12:02.605Z,153.87
2018-12-03T21:14:35.232Z,161.57
2018-12-03T21:17:11.363Z,149.53
2018-12-03T21:19:44.976Z,156.33
2018-12-03T21:22:21.790Z,151.47
2018-12-03T21:24:53.940Z,160.13
2018-12-03T21:27:26.200Z,151.87
2018-12-03T21:29:58.536Z,161.67
2018-12-03T21:32:34.656Z,150.13
2018-12-03T21:35:07.815Z,144.80
2018-12-03T21:37:40.501Z,154.80
2018-12-03T21:40:11.531Z,146.60
2018-12-03T21:42:43.714Z,152.47
2018-12-03T21:45:16.088Z,139.13
2018-12-03T21:47:48.898Z,142.60
2018-12-03T21:50:21.018Z,140.30
2018-12-03T21:52:53.125Z,148.37
2018-12-03T21:55:29.962Z,145.43
2018-12-03T21:58:03.791Z,139.73
2018-12-03T22:00:36.580Z,150.67
2018-12-03T22:03:08.912Z,160.20
2018-12-03T22:05:41.327Z,144.33
2018-12-03T22:08:13.593Z,140.63
2018-12-03T22:10:45.768Z,122.60
2018-12-03T22:13:17.874Z,121.50
2018-12-03T22:15:54.052Z,121.30
2018-12-03T22:18:26.249Z,144.53
2018-12-03T22:21:02.276Z,127.43
2018-12-03T22:26:11.234Z,115.17
2018-12-03T22:28:47.364Z,109.87
2018-12-03T22:31:19.621Z,115.47
2018-12-03T22:33:51.737Z,112.37
2018-12-03T22:36:24.543Z,110.97
2018-12-03T22:38:57.097Z,106.60
2018-12-03T22:41:29.211Z,104.77
2018-12-03T22:44:01.484Z,114.67
2018-12-03T22:46:33.737Z,139.53
2018-12-03T22:49:06.554Z,118.87
2018-12-03T22:51:38.911Z,137.73
2018-12-03T22:54:15.446Z,122.10
2018-12-03T22:56:47.588Z,115.27
2018-12-03T22:59:19.632Z,113.20
2018-12-03T23:01:51.964Z,116.00
2018-12-03T23:04:24.800Z,111.70
2018-12-03T23:06:56.890Z,119.03
2018-12-03T23:09:29.879Z,115.33
2018-12-03T23:12:03.771Z,125.23
2018-12-03T23:14:39.959Z,120.90
2018-12-03T23:17:12.112Z,124.77
2018-12-03T23:19:48.494Z,114.60
2018-12-03T23:22:20.800Z,117.07
2018-12-03T23:24:53.089Z,116.13
2018-12-03T23:27:25.355Z,115.23
2018-12-03T23:29:58.279Z,109.63
2018-12-03T23:32:30.656Z,102.13
2018-12-03T23:35:04.852Z,106.63
2018-12-03T23:37:41.172Z,118.37
2018-12-03T23:40:17.423Z,99.67
2018-12-03T23:42:49.619Z,95.53
2018-12-03T23:45:24.352Z,88.37
2018-12-03T23:47:56.891Z,98.63
2018-12-03T23:50:29.772Z,89.10
2018-12-03T23:53:01.981Z,92.17
2018-12-03T23:55:34.271Z,89.63
2018-12-03T23:58:06.540Z,98.33
